createdAt,value
2023-02-26T00:00:11.542Z,78.14
2023-02-26T00:01:11.535Z,77.83
2023-02-26T00:02:11.573Z,78.18
2023-02-26T00:03:11.643Z,78.04
2023-02-26T00:04:11.541Z,77.72
2023-02-26T00:05:11.512Z,78.18
2023-02-26T00:06:11.474Z,78.87
2023-02-26T00:07:11.481Z,78.66
2023-02-26T00:08:11.464Z,78.56
2023-02-26T00:09:11.468Z,78.14
2023-02-26T00:10:11.435Z,79.01
2023-02-26T00:11:11.445Z,79.22
2023-02-26T00:12:11.408Z,79.29
2023-02-26T00:13:11.400Z,78.97
2023-02-26T00:14:11.393Z,79.08
2023-02-26T00:15:11.389Z,78.97
2023-02-26T00:16:11.366Z,79.08
2023-02-26T00:17:11.640Z,79.08
2023-02-26T00:18:11.340Z,78.87
2023-02-26T00:19:11.381Z,78.97
2023-02-26T00:20:11.329Z,79.19
2023-02-26T00:21:11.322Z,78.87
2023-02-26T00:22:11.310Z,78.66
2023-02-26T00:23:11.308Z,78.31
2023-02-26T00:24:11.296Z,78.42
2023-02-26T00:25:11.268Z,78.21
2023-02-26T00:26:11.249Z,78.52
2023-02-26T00:27:11.243Z,77.69
2023-02-26T00:28:11.235Z,77.76
2023-02-26T00:29:11.223Z,77.97
2023-02-26T00:30:11.221Z,77.69
2023-02-26T00:31:11.332Z,77.58
2023-02-26T00:32:11.330Z,77.34
2023-02-26T00:33:11.182Z,77.34
2023-02-26T00:34:11.162Z,77.17
2023-02-26T00:35:11.204Z,76.92
2023-02-26T00:36:11.139Z,76.92
2023-02-26T00:37:11.149Z,77.03
2023-02-26T00:38:11.130Z,77.13
2023-02-26T00:39:11.125Z,77.34
2023-02-26T00:40:11.130Z,77.03
2023-02-26T00:41:11.135Z,77.76
2023-02-26T00:42:11.087Z,77.76
2023-02-26T00:43:11.067Z,77.23
2023-02-26T00:44:11.055Z,77.76
2023-02-26T00:45:11.059Z,76.68
2023-02-26T00:46:11.073Z,77.23
2023-02-26T00:47:11.048Z,77.03
2023-02-26T00:48:11.008Z,77.10
2023-02-26T00:49:11.023Z,77.03
2023-02-26T00:50:11.000Z,76.89
2023-02-26T00:51:11.025Z,77.66
2023-02-26T00:52:10.964Z,77.31
2023-02-26T00:53:10.955Z,77.13
2023-02-26T00:54:10.944Z,77.34
2023-02-26T00:55:10.950Z,77.31
2023-02-26T00:56:10.936Z,77.31
2023-02-26T00:57:10.929Z,77.10
2023-02-26T00:58:10.909Z,77.31
2023-02-26T00:59:10.897Z,77.62
2023-02-26T01:00:10.881Z,76.99
2023-02-26T01:01:10.900Z,77.72
2023-02-26T01:02:10.864Z,77.51
2023-02-26T01:03:10.858Z,76.68
2023-02-26T01:04:10.853Z,77.03
2023-02-26T01:05:10.822Z,77.03
2023-02-26T01:06:10.820Z,77.62
2023-02-26T01:07:10.850Z,76.89
2023-02-26T01:08:10.806Z,76.26
2023-02-26T01:09:10.831Z,77.31
2023-02-26T01:10:10.759Z,76.99
2023-02-26T01:11:10.766Z,77.55
2023-02-26T01:12:11.140Z,77.03
2023-02-26T01:13:10.741Z,77.03
2023-02-26T01:14:10.744Z,76.92
2023-02-26T01:15:10.717Z,77.13
2023-02-26T01:16:10.816Z,77.66
2023-02-26T01:17:10.708Z,77.45
2023-02-26T01:18:10.823Z,77.13
2023-02-26T01:19:10.676Z,77.13
2023-02-26T01:20:10.649Z,77.23
2023-02-26T01:21:10.655Z,77.76
2023-02-26T01:22:10.640Z,77.97
2023-02-26T01:23:10.657Z,77.97
2023-02-26T01:24:10.616Z,77.86
2023-02-26T01:25:10.614Z,77.86
2023-02-26T01:26:10.594Z,77.97
2023-02-26T01:27:10.575Z,77.76
2023-02-26T01:28:10.588Z,77.45
2023-02-26T01:29:10.553Z,77.45
2023-02-26T01:30:10.536Z,77.66
2023-02-26T01:31:10.634Z,77.55
2023-02-26T01:32:10.697Z,77.97
2023-02-26T01:33:10.536Z,77.23
2023-02-26T01:34:10.494Z,77.37
2023-02-26T01:35:10.486Z,77.23
2023-02-26T01:36:10.476Z,77.86
2023-02-26T01:37:10.478Z,78.17
2023-02-26T01:38:10.472Z,77.90
2023-02-26T01:39:10.504Z,77.90
2023-02-26T01:40:10.444Z,78.00
2023-02-26T01:41:10.419Z,78.83
2023-02-26T01:42:10.421Z,78.42
2023-02-26T01:43:10.425Z,78.31
2023-02-26T01:44:10.416Z,78.42
2023-02-26T01:45:10.377Z,79.19
2023-02-26T01:46:10.377Z,79.15
2023-02-26T01:47:10.354Z,79.19
2023-02-26T01:48:10.343Z,78.97
2023-02-26T01:49:10.359Z,78.87
2023-02-26T01:50:10.316Z,78.66
2023-02-26T01:51:10.314Z,78.87
2023-02-26T01:52:10.316Z,79.08
2023-02-26T01:53:10.300Z,79.01
2023-02-26T01:54:10.293Z,79.74
2023-02-26T01:55:10.291Z,79.64
2023-02-26T01:56:10.249Z,79.33
2023-02-26T01:57:10.262Z,79.53
2023-02-26T01:58:10.242Z,79.68
2023-02-26T01:59:10.236Z,79.53
2023-02-26T02:00:10.223Z,80.20
2023-02-26T02:01:10.199Z,80.16
2023-02-26T02:02:10.289Z,81.24
2023-02-26T02:03:10.356Z,80.93
2023-02-26T02:04:10.189Z,80.79
2023-02-26T02:05:10.180Z,80.30
2023-02-26T02:06:10.142Z,80.13
2023-02-26T02:07:10.132Z,79.88
2023-02-26T02:08:10.135Z,80.09
2023-02-26T02:09:10.142Z,80.41
2023-02-26T02:10:10.097Z,81.13
2023-02-26T02:11:10.113Z,80.72
2023-02-26T02:12:10.088Z,80.72
2023-02-26T02:13:10.067Z,81.07
2023-02-26T02:14:10.066Z,80.86
2023-02-26T02:15:10.045Z,81.18
2023-02-26T02:16:10.063Z,81.76
2023-02-26T02:17:10.032Z,81.80
2023-02-26T02:18:10.017Z,81.66
2023-02-26T02:19:10.006Z,81.80
2023-02-26T02:20:10.015Z,81.76
2023-02-26T02:21:09.971Z,81.70
2023-02-26T02:22:09.959Z,81.70
2023-02-26T02:23:09.974Z,81.80
2023-02-26T02:24:09.945Z,81.59
2023-02-26T02:25:09.941Z,81.49
2023-02-26T02:26:09.942Z,81.80
2023-02-26T02:27:09.929Z,81.80
2023-02-26T02:28:09.905Z,82.43
2023-02-26T02:29:09.892Z,82.22
2023-02-26T02:30:09.868Z,82.53
2023-02-26T02:31:09.983Z,82.29
2023-02-26T02:32:10.126Z,81.59
2023-02-26T02:33:09.852Z,82.22
2023-02-26T02:34:09.836Z,81.59
2023-02-26T02:35:09.829Z,81.66
2023-02-26T02:36:09.798Z,82.39
2023-02-26T02:37:09.805Z,82.53
2023-02-26T02:38:09.792Z,82.60
2023-02-26T02:39:09.766Z,82.12
2023-02-26T02:40:09.770Z,82.43
2023-02-26T02:41:09.745Z,82.18
2023-02-26T02:42:09.755Z,82.07
2023-02-26T02:43:09.764Z,81.87
2023-02-26T02:44:09.712Z,81.56
2023-02-26T02:45:09.700Z,81.56
2023-02-26T02:46:09.757Z,81.87
2023-02-26T02:47:09.693Z,81.97
2023-02-26T02:48:09.680Z,81.76
2023-02-26T02:49:09.658Z,81.90
2023-02-26T02:50:09.644Z,81.59
2023-02-26T02:51:09.636Z,81.70
2023-02-26T02:52:09.636Z,81.59
2023-02-26T02:53:09.613Z,81.35
2023-02-26T02:54:09.613Z,81.87
2023-02-26T02:55:09.606Z,81.66
2023-02-26T02:56:09.581Z,82.43
2023-02-26T02:57:09.604Z,82.64
2023-02-26T02:58:09.554Z,82.32
2023-02-26T02:59:09.582Z,82.29
2023-02-26T03:00:09.538Z,82.64
2023-02-26T03:01:09.607Z,82.64
2023-02-26T03:02:09.536Z,82.84
2023-02-26T03:03:09.506Z,82.60
2023-02-26T03:04:09.491Z,82.43
2023-02-26T03:05:09.481Z,82.43
2023-02-26T03:06:09.479Z,82.43
2023-02-26T03:07:09.474Z,82.53
2023-02-26T03:08:09.443Z,82.22
2023-02-26T03:09:09.453Z,82.22
2023-02-26T03:10:09.422Z,81.90
2023-02-26T03:11:09.420Z,81.59
2023-02-26T03:12:09.410Z,81.70
2023-02-26T03:13:09.422Z,81.90
2023-02-26T03:14:09.390Z,81.70
2023-02-26T03:15:09.405Z,82.01
2023-02-26T03:16:09.416Z,81.59
2023-02-26T03:17:09.349Z,81.70
2023-02-26T03:18:09.348Z,81.80
2023-02-26T03:19:09.325Z,81.59
2023-02-26T03:20:09.325Z,81.63
2023-02-26T03:21:09.321Z,82.01
2023-02-26T03:22:09.295Z,81.59
2023-02-26T03:23:09.297Z,81.63
2023-02-26T03:24:09.268Z,81.73
2023-02-26T03:25:09.261Z,82.05
2023-02-26T03:26:11.573Z,82.01
2023-02-26T03:27:09.252Z,82.05
2023-02-26T03:28:09.243Z,81.73
2023-02-26T03:29:09.228Z,81.80
2023-02-26T03:30:09.227Z,81.63
2023-02-26T03:31:09.217Z,82.36
2023-02-26T03:32:09.288Z,82.05
2023-02-26T03:33:09.189Z,82.46
2023-02-26T03:34:09.158Z,82.57
2023-02-26T03:35:09.167Z,82.36
2023-02-26T03:36:09.136Z,82.26
2023-02-26T03:37:09.141Z,82.26
2023-02-26T03:38:09.160Z,82.57
2023-02-26T03:39:09.107Z,82.15
2023-02-26T03:40:09.107Z,82.71
2023-02-26T03:41:09.086Z,82.71
2023-02-26T03:42:09.089Z,82.15
2023-02-26T03:43:09.075Z,82.67
2023-02-26T03:44:09.054Z,82.50
2023-02-26T03:45:09.041Z,82.46
2023-02-26T03:46:09.054Z,82.50
2023-02-26T03:47:09.037Z,82.67
2023-02-26T03:48:09.038Z,82.36
2023-02-26T03:49:09.038Z,82.19
2023-02-26T03:50:09.005Z,81.77
2023-02-26T03:51:08.996Z,81.63
2023-02-26T03:52:09.019Z,81.56
2023-02-26T03:53:08.992Z,81.98
2023-02-26T03:54:08.961Z,81.98
2023-02-26T03:55:08.945Z,82.19
2023-02-26T03:56:08.936Z,82.05
2023-02-26T03:57:08.906Z,82.09
2023-02-26T03:58:08.917Z,82.09
2023-02-26T03:59:08.882Z,81.77
2023-02-26T04:00:08.881Z,81.87
2023-02-26T04:01:08.878Z,82.09
2023-02-26T04:02:08.898Z,81.98
2023-02-26T04:03:08.880Z,81.67
2023-02-26T04:04:08.865Z,81.67
2023-02-26T04:05:08.812Z,81.87
2023-02-26T04:06:08.819Z,81.87
2023-02-26T04:07:08.807Z,81.67
2023-02-26T04:08:08.811Z,81.60
2023-02-26T04:09:08.782Z,81.87
2023-02-26T04:10:08.781Z,81.60
2023-02-26T04:11:08.762Z,81.49
2023-02-26T04:12:08.771Z,81.70
2023-02-26T04:13:08.758Z,81.87
2023-02-26T04:14:08.723Z,81.87
2023-02-26T04:15:08.715Z,81.67
2023-02-26T04:16:08.712Z,81.35
2023-02-26T04:17:08.679Z,81.49
2023-02-26T04:18:08.694Z,81.67
2023-02-26T04:19:08.695Z,81.56
2023-02-26T04:20:08.668Z,81.29
2023-02-26T04:21:08.655Z,81.60
2023-02-26T04:22:08.636Z,81.56
2023-02-26T04:23:08.626Z,81.46
2023-02-26T04:24:08.625Z,81.39
2023-02-26T04:25:08.605Z,81.70
2023-02-26T04:26:08.598Z,81.39
2023-02-26T04:27:08.566Z,81.60
2023-02-26T04:28:08.555Z,81.70
2023-02-26T04:29:08.552Z,81.81
2023-02-26T04:30:08.559Z,81.07
2023-02-26T04:31:09.636Z,81.18
2023-02-26T04:32:08.722Z,81.39
2023-02-26T04:33:08.522Z,81.39
2023-02-26T04:34:08.531Z,81.49
2023-02-26T04:35:08.515Z,81.70
2023-02-26T04:36:08.480Z,81.60
2023-02-26T04:37:08.470Z,81.39
2023-02-26T04:38:08.454Z,81.49
2023-02-26T04:39:08.439Z,81.70
2023-02-26T04:40:08.438Z,81.70
2023-02-26T04:41:08.435Z,81.49
2023-02-26T04:42:08.418Z,81.60
2023-02-26T04:43:08.389Z,81.49
2023-02-26T04:44:08.391Z,81.60
2023-02-26T04:45:08.385Z,81.49
2023-02-26T04:46:08.431Z,81.85
2023-02-26T04:47:08.344Z,81.18
2023-02-26T04:48:08.344Z,81.12
2023-02-26T04:49:08.320Z,81.39
2023-02-26T04:50:08.324Z,81.49
2023-02-26T04:51:08.336Z,81.18
2023-02-26T04:52:08.365Z,81.07
2023-02-26T04:54:32.260Z,81.49
2023-02-26T04:56:24.091Z,81.29
2023-02-26T04:58:09.314Z,81.49
2023-02-26T04:59:53.479Z,81.29
2023-02-26T05:01:31.326Z,81.18
2023-02-26T05:03:16.003Z,81.07
2023-02-26T05:04:56.522Z,81.53
2023-02-26T05:06:37.042Z,81.12
2023-02-26T05:08:14.484Z,81.43
2023-02-26T05:09:51.971Z,81.29
2023-02-26T05:11:27.359Z,81.22
2023-02-26T05:13:02.133Z,81.22
2023-02-26T05:14:30.864Z,81.12
2023-02-26T05:16:01.772Z,81.32
2023-02-26T05:17:29.202Z,81.63
2023-02-26T05:18:58.203Z,81.43
2023-02-26T05:20:24.803Z,81.22
2023-02-26T05:21:51.406Z,81.53
2023-02-26T05:23:15.258Z,81.22
2023-02-26T05:24:43.069Z,81.43
2023-02-26T05:26:03.601Z,81.43
2023-02-26T05:27:28.707Z,81.63
2023-02-26T05:28:49.221Z,82.06
2023-02-26T05:30:12.788Z,82.16
2023-02-26T05:31:24.017Z,81.63
2023-02-26T05:32:39.983Z,82.30
2023-02-26T05:33:49.320Z,82.06
2023-02-26T05:35:06.543Z,82.06
2023-02-26T05:36:15.256Z,82.16
2023-02-26T05:37:28.868Z,81.53
2023-02-26T05:38:38.507Z,81.74
2023-02-26T05:39:53.602Z,81.39
2023-02-26T05:41:00.540Z,81.49
2023-02-26T05:42:16.231Z,81.92
2023-02-26T05:43:23.143Z,81.92
2023-02-26T05:44:37.941Z,81.74
2023-02-26T05:45:44.593Z,81.60
2023-02-26T05:46:59.088Z,81.29
2023-02-26T05:48:03.285Z,81.49
2023-02-26T05:49:18.410Z,81.49
2023-02-26T05:50:19.261Z,80.97
2023-02-26T05:51:31.665Z,81.07
2023-02-26T05:52:27.047Z,80.97
2023-02-26T05:53:39.765Z,81.43
2023-02-26T05:54:24.566Z,81.63
2023-02-26T05:55:36.634Z,81.43
2023-02-26T05:56:28.727Z,81.74
2023-02-26T05:57:39.591Z,81.85
2023-02-26T05:58:20.773Z,82.06
2023-02-26T05:59:22.547Z,81.74
2023-02-26T06:00:06.769Z,81.43
2023-02-26T06:01:10.364Z,81.43
2023-02-26T06:01:49.782Z,81.43
2023-02-26T06:02:53.644Z,81.70
2023-02-26T06:03:42.372Z,81.85
2023-02-26T06:04:42.381Z,81.95
2023-02-26T06:05:42.356Z,81.95
2023-02-26T06:06:42.345Z,81.95
2023-02-26T06:07:42.340Z,82.06
2023-02-26T06:08:42.360Z,81.95
2023-02-26T06:09:42.323Z,81.85
2023-02-26T06:10:42.297Z,81.53
2023-02-26T06:11:42.298Z,81.95
2023-02-26T06:12:42.274Z,81.85
2023-02-26T06:13:42.272Z,82.06
2023-02-26T06:14:42.336Z,81.95
2023-02-26T06:15:42.258Z,81.95
2023-02-26T06:16:42.338Z,81.99
2023-02-26T06:17:42.233Z,81.74
2023-02-26T06:18:42.230Z,82.20
2023-02-26T06:19:42.224Z,81.88
2023-02-26T06:20:42.197Z,81.99
2023-02-26T06:21:42.169Z,82.06
2023-02-26T06:22:42.162Z,82.06
2023-02-26T06:23:42.163Z,81.67
2023-02-26T06:24:42.176Z,81.67
2023-02-26T06:25:42.145Z,81.95
2023-02-26T06:26:42.117Z,82.20
2023-02-26T06:27:42.128Z,81.74
2023-02-26T06:28:42.137Z,81.99
2023-02-26T06:29:42.094Z,82.09
2023-02-26T06:30:42.190Z,82.16
2023-02-26T06:31:42.161Z,82.20
2023-02-26T06:32:42.148Z,81.88
2023-02-26T06:33:42.038Z,82.20
2023-02-26T06:34:42.039Z,82.51
2023-02-26T06:35:42.046Z,82.97
2023-02-26T06:36:42.023Z,83.14
2023-02-26T06:37:42.021Z,82.93
2023-02-26T06:38:42.000Z,82.72
2023-02-26T06:39:42.000Z,83.25
2023-02-26T06:40:42.018Z,83.35
2023-02-26T06:41:41.973Z,83.56
2023-02-26T06:42:41.962Z,83.25
2023-02-26T06:43:41.973Z,83.14
2023-02-26T06:44:41.919Z,83.03
2023-02-26T06:45:41.952Z,82.72
2023-02-26T06:46:41.927Z,83.35
2023-02-26T06:47:41.901Z,83.25
2023-02-26T06:48:41.881Z,83.45
2023-02-26T06:49:41.882Z,83.45
2023-02-26T06:50:41.871Z,83.25
2023-02-26T06:51:41.875Z,83.35
2023-02-26T06:52:41.844Z,83.35
2023-02-26T06:53:41.837Z,83.35
2023-02-26T06:54:41.813Z,83.14
2023-02-26T06:55:41.806Z,83.00
2023-02-26T06:56:41.828Z,83.42
2023-02-26T06:57:41.812Z,83.14
2023-02-26T06:58:41.779Z,83.21
2023-02-26T06:59:41.852Z,83.45
2023-02-26T07:00:41.758Z,83.31
2023-02-26T07:01:41.749Z,82.79
2023-02-26T07:02:41.822Z,82.68
2023-02-26T07:03:41.737Z,82.79
2023-02-26T07:04:41.712Z,82.65
2023-02-26T07:05:41.710Z,82.47
2023-02-26T07:06:42.038Z,82.47
2023-02-26T07:07:41.689Z,82.54
2023-02-26T07:08:41.670Z,82.43
2023-02-26T07:09:41.666Z,82.79
2023-02-26T07:10:41.654Z,82.79
2023-02-26T07:11:41.636Z,82.54
2023-02-26T07:12:41.645Z,82.58
2023-02-26T07:13:41.629Z,82.33
2023-02-26T07:14:41.592Z,82.65
2023-02-26T07:15:41.582Z,82.68
2023-02-26T07:16:41.617Z,82.23
2023-02-26T07:17:41.570Z,82.23
2023-02-26T07:18:41.566Z,82.43
2023-02-26T07:19:41.546Z,81.92
2023-02-26T07:20:41.518Z,82.23
2023-02-26T07:21:41.527Z,82.02
2023-02-26T07:22:41.497Z,81.70
2023-02-26T07:23:41.507Z,81.81
2023-02-26T07:24:41.502Z,81.70
2023-02-26T07:25:41.481Z,81.49
2023-02-26T07:26:41.453Z,81.70
2023-02-26T07:27:43.736Z,81.35
2023-02-26T07:28:41.467Z,81.35
2023-02-26T07:29:41.454Z,80.90
2023-02-26T07:30:41.549Z,80.79
2023-02-26T07:31:41.665Z,80.44
2023-02-26T07:32:41.419Z,80.13
2023-02-26T07:33:41.384Z,80.02
2023-02-26T07:34:41.380Z,80.02
2023-02-26T07:35:41.386Z,79.71
2023-02-26T07:36:41.342Z,79.68
2023-02-26T07:37:41.337Z,79.36
2023-02-26T07:38:41.336Z,79.26
2023-02-26T07:39:41.310Z,79.01
2023-02-26T07:40:41.311Z,78.49
2023-02-26T07:41:41.303Z,78.91
2023-02-26T07:42:41.271Z,78.07
2023-02-26T07:43:41.280Z,77.62
2023-02-26T07:44:41.288Z,77.20
2023-02-26T07:45:41.243Z,77.31
2023-02-26T07:46:41.238Z,77.27
2023-02-26T07:47:41.222Z,76.72
2023-02-26T07:48:41.219Z,77.03
2023-02-26T07:49:41.223Z,76.20
2023-02-26T07:50:41.187Z,75.46
2023-02-26T07:51:41.187Z,75.22
2023-02-26T07:52:41.172Z,75.29
2023-02-26T07:53:41.163Z,74.77
2023-02-26T07:54:41.148Z,74.35
2023-02-26T07:55:41.150Z,74.15
2023-02-26T07:56:41.127Z,73.80
2023-02-26T07:57:41.133Z,73.69
2023-02-26T07:58:41.094Z,73.49
2023-02-26T07:59:41.098Z,73.18
2023-02-26T08:00:41.105Z,73.18
2023-02-26T08:01:41.162Z,72.62
2023-02-26T08:02:41.048Z,72.45
2023-02-26T08:03:41.070Z,72.52
2023-02-26T08:04:41.037Z,72.52
2023-02-26T08:05:41.018Z,72.49
2023-02-26T08:06:41.004Z,72.28
2023-02-26T08:07:41.047Z,72.03
2023-02-26T08:08:41.013Z,72.03
2023-02-26T08:09:40.978Z,71.48
2023-02-26T08:10:42.110Z,70.13
2023-02-26T08:11:40.965Z,69.89
2023-02-26T08:12:40.961Z,70.20
2023-02-26T08:13:40.956Z,70.62
2023-02-26T08:14:40.928Z,68.93
2023-02-26T08:15:40.930Z,68.41
2023-02-26T08:16:40.935Z,68.62
2023-02-26T08:17:40.896Z,68.72
2023-02-26T08:18:40.903Z,67.99
2023-02-26T08:19:40.869Z,67.86
2023-02-26T08:20:40.867Z,68.55
2023-02-26T08:21:40.851Z,68.17
2023-02-26T08:22:40.834Z,67.41
2023-02-26T08:23:40.818Z,67.10
2023-02-26T08:24:40.834Z,66.86
2023-02-26T08:25:40.807Z,66.86
2023-02-26T08:26:40.784Z,66.55
2023-02-26T08:27:40.790Z,66.44
2023-02-26T08:28:40.756Z,66.72
2023-02-26T08:29:40.776Z,67.03
2023-02-26T08:30:40.792Z,66.08
2023-02-26T08:31:40.836Z,66.49
2023-02-26T08:32:40.798Z,66.25
2023-02-26T08:33:40.723Z,65.11
2023-02-26T08:34:40.704Z,64.90
2023-02-26T08:35:40.697Z,65.22
2023-02-26T08:36:40.685Z,65.22
2023-02-26T08:37:40.685Z,65.32
2023-02-26T08:38:40.667Z,65.60
2023-02-26T08:39:40.671Z,65.29
2023-02-26T08:40:40.632Z,64.23
2023-02-26T08:41:40.627Z,63.81
2023-02-26T08:42:40.607Z,64.02
2023-02-26T08:43:40.599Z,63.60
2023-02-26T08:44:40.592Z,63.40
2023-02-26T08:45:40.602Z,63.81
2023-02-26T08:46:40.639Z,63.81
2023-02-26T08:47:53.954Z,63.92
2023-02-26T08:48:41.551Z,63.71
2023-02-26T08:49:40.535Z,63.81
2023-02-26T08:50:40.535Z,63.81
2023-02-26T08:51:40.500Z,63.71
2023-02-26T08:52:40.498Z,63.19
2023-02-26T08:53:40.495Z,63.19
2023-02-26T08:54:40.486Z,63.40
2023-02-26T08:55:40.461Z,63.09
2023-02-26T08:56:40.454Z,63.37
2023-02-26T08:57:40.432Z,63.37
2023-02-26T08:58:40.434Z,62.95
2023-02-26T08:59:40.424Z,62.65
2023-02-26T09:00:40.396Z,62.54
2023-02-26T09:01:40.452Z,62.44
2023-02-26T09:02:40.457Z,62.13
2023-02-26T09:03:40.372Z,60.89
2023-02-26T09:04:40.375Z,60.89
2023-02-26T09:05:40.347Z,62.23
2023-02-26T09:06:40.346Z,61.48
2023-02-26T09:07:40.324Z,61.07
2023-02-26T09:08:40.315Z,60.96
2023-02-26T09:09:40.324Z,60.73
2023-02-26T09:10:41.222Z,60.93
2023-02-26T09:11:40.294Z,60.49
2023-02-26T09:12:40.261Z,60.18
2023-02-26T09:13:40.268Z,59.64
2023-02-26T09:14:40.242Z,59.02
2023-02-26T09:15:40.251Z,58.99
2023-02-26T09:16:40.297Z,59.33
2023-02-26T09:17:40.229Z,58.92
2023-02-26T09:18:40.200Z,59.02
2023-02-26T09:19:40.212Z,59.44
2023-02-26T09:20:40.203Z,58.81
2023-02-26T09:21:40.178Z,58.99
2023-02-26T09:22:40.172Z,59.17
2023-02-26T09:23:40.162Z,58.76
2023-02-26T09:24:40.208Z,58.76
2023-02-26T09:25:40.136Z,59.01
2023-02-26T09:26:40.107Z,58.37
2023-02-26T09:27:40.119Z,56.38
2023-02-26T09:28:40.193Z,56.46
2023-02-26T09:29:40.090Z,56.36
2023-02-26T09:30:40.090Z,55.51
2023-02-26T09:31:40.732Z,55.82
2023-02-26T09:32:40.127Z,54.36
2023-02-26T09:33:40.051Z,53.74
2023-02-26T09:34:40.036Z,53.94
2023-02-26T09:35:40.009Z,53.02
2023-02-26T09:36:40.025Z,53.61
2023-02-26T09:37:39.987Z,53.81
2023-02-26T09:38:39.990Z,53.20
2023-02-26T09:39:40.006Z,53.45
2023-02-26T09:40:39.967Z,52.94
2023-02-26T09:41:40.059Z,53.02
2023-02-26T09:42:39.960Z,53.25
2023-02-26T09:43:39.976Z,52.56
2023-02-26T09:44:39.917Z,52.86
2023-02-26T09:45:39.958Z,53.41
2023-02-26T09:46:39.895Z,53.89
2023-02-26T09:47:39.897Z,54.72
2023-02-26T09:48:39.875Z,54.25
2023-02-26T09:49:39.852Z,54.05
2023-02-26T09:50:39.847Z,54.05
2023-02-26T09:51:39.830Z,53.43
2023-02-26T09:52:39.847Z,54.13
2023-02-26T09:53:39.820Z,53.09
2023-02-26T09:54:39.792Z,51.24
2023-02-26T09:55:39.802Z,51.04
2023-02-26T09:56:39.770Z,51.65
2023-02-26T09:57:39.787Z,51.73
2023-02-26T09:58:39.763Z,51.42
2023-02-26T09:59:39.768Z,50.50
2023-02-26T10:00:39.740Z,50.09
2023-02-26T10:01:39.787Z,49.47
2023-02-26T10:02:39.727Z,49.68
2023-02-26T10:03:39.759Z,49.76
2023-02-26T10:04:39.710Z,49.78
2023-02-26T10:05:39.687Z,50.11
2023-02-26T10:06:39.668Z,51.24
2023-02-26T10:07:39.665Z,51.42
2023-02-26T10:08:39.666Z,51.73
2023-02-26T10:09:39.657Z,51.30
2023-02-26T10:10:39.619Z,49.76
2023-02-26T10:11:39.621Z,49.96
2023-02-26T10:12:39.606Z,49.44
2023-02-26T10:13:56.089Z,48.42
2023-02-26T10:14:40.600Z,48.52
2023-02-26T10:15:39.609Z,48.63
2023-02-26T10:16:39.622Z,48.24
2023-02-26T10:17:39.540Z,48.05
2023-02-26T10:18:39.525Z,49.31
2023-02-26T10:19:39.530Z,49.31
2023-02-26T10:20:39.613Z,49.90
2023-02-26T10:21:39.502Z,49.68
2023-02-26T10:22:39.495Z,49.44
2023-02-26T10:23:39.617Z,49.65
2023-02-26T10:24:39.498Z,47.78
2023-02-26T10:25:39.464Z,48.09
2023-02-26T10:26:39.646Z,47.94
2023-02-26T10:27:39.441Z,47.24
2023-02-26T10:28:39.432Z,47.39
2023-02-26T10:29:39.423Z,47.41
2023-02-26T10:30:39.507Z,47.87
2023-02-26T10:31:39.431Z,49.44
2023-02-26T10:32:39.478Z,50.08
2023-02-26T10:33:39.368Z,50.84
2023-02-26T10:34:39.413Z,51.18
2023-02-26T10:35:39.347Z,51.46
2023-02-26T10:36:39.323Z,51.70
2023-02-26T10:37:39.334Z,51.92
2023-02-26T10:38:39.312Z,52.95
2023-02-26T10:39:39.288Z,53.24
2023-02-26T10:40:39.321Z,52.39
2023-02-26T10:41:39.374Z,51.54
2023-02-26T10:42:39.264Z,51.62
2023-02-26T10:43:39.254Z,51.09
2023-02-26T10:44:39.240Z,50.88
2023-02-26T10:45:39.275Z,50.36
2023-02-26T10:46:39.208Z,49.41
2023-02-26T10:47:39.233Z,49.82
2023-02-26T10:48:39.197Z,49.80
2023-02-26T10:49:39.181Z,49.16
2023-02-26T10:50:39.177Z,50.16
2023-02-26T10:51:39.147Z,48.11
2023-02-26T10:52:39.145Z,48.63
2023-02-26T10:53:40.664Z,48.11
2023-02-26T10:54:39.153Z,47.70
2023-02-26T10:55:39.340Z,47.78
2023-02-26T10:56:39.130Z,48.01
2023-02-26T10:57:39.171Z,47.16
2023-02-26T10:58:39.153Z,47.37
2023-02-26T10:59:39.068Z,48.29
2023-02-26T11:00:39.067Z,47.67
2023-02-26T11:01:39.096Z,47.19
2023-02-26T11:02:39.129Z,48.05
2023-02-26T11:03:39.063Z,48.57
2023-02-26T11:04:39.028Z,47.87
2023-02-26T11:05:38.992Z,49.33
2023-02-26T11:06:38.998Z,49.56
2023-02-26T11:07:38.982Z,48.88
2023-02-26T11:08:38.992Z,50.46
2023-02-26T11:09:38.963Z,49.86
2023-02-26T11:10:38.978Z,51.02
2023-02-26T11:11:38.939Z,51.12
2023-02-26T11:12:38.946Z,51.56
2023-02-26T11:13:38.916Z,51.45
2023-02-26T11:14:38.905Z,51.79
2023-02-26T11:15:38.892Z,51.79
2023-02-26T11:16:38.893Z,51.07
2023-02-26T11:17:38.873Z,51.48
2023-02-26T11:18:38.878Z,51.68
2023-02-26T11:19:38.842Z,52.41
2023-02-26T11:20:38.847Z,52.51
2023-02-26T11:21:38.835Z,51.68
2023-02-26T11:22:38.898Z,52.41
2023-02-26T11:23:38.814Z,52.98
2023-02-26T11:24:38.814Z,53.59
2023-02-26T11:25:38.788Z,53.08
2023-02-26T11:26:38.779Z,53.18
2023-02-26T11:27:38.780Z,54.01
2023-02-26T11:28:38.786Z,53.59
2023-02-26T11:29:38.785Z,53.83
2023-02-26T11:30:38.783Z,54.53
2023-02-26T11:31:41.053Z,54.53
2023-02-26T11:32:38.728Z,54.03
2023-02-26T11:33:38.685Z,54.32
2023-02-26T11:34:38.806Z,54.76
2023-02-26T11:35:38.666Z,55.07
2023-02-26T11:36:38.743Z,54.84
2023-02-26T11:37:38.657Z,55.28
2023-02-26T11:38:38.645Z,54.76
2023-02-26T11:39:38.645Z,55.07
2023-02-26T11:40:38.612Z,55.59
2023-02-26T11:41:38.611Z,54.97
2023-02-26T11:42:38.585Z,54.76
2023-02-26T11:43:38.579Z,54.45
2023-02-26T11:44:38.620Z,54.55
2023-02-26T11:45:38.558Z,54.45
2023-02-26T11:46:38.552Z,54.14
2023-02-26T11:47:38.538Z,54.94
2023-02-26T11:48:38.529Z,54.45
2023-02-26T11:49:38.633Z,54.35
2023-02-26T11:50:38.517Z,53.83
2023-02-26T11:51:38.482Z,54.14
2023-02-26T11:52:38.484Z,53.72
2023-02-26T11:53:38.522Z,53.62
2023-02-26T11:54:38.463Z,53.83
2023-02-26T11:55:38.451Z,54.35
2023-02-26T11:56:38.425Z,54.14
2023-02-26T11:57:38.422Z,54.47
2023-02-26T11:58:38.416Z,54.99
2023-02-26T11:59:38.405Z,53.85
2023-02-26T12:00:38.413Z,54.66
2023-02-26T12:01:38.370Z,54.01
2023-02-26T12:02:38.409Z,53.36
2023-02-26T12:03:38.371Z,53.23
2023-02-26T12:04:38.344Z,53.08
2023-02-26T12:05:38.350Z,51.70
2023-02-26T12:06:38.322Z,51.98
2023-02-26T12:07:38.307Z,51.10
2023-02-26T12:08:38.365Z,49.72
2023-02-26T12:09:38.275Z,49.90
2023-02-26T12:10:38.299Z,49.47
2023-02-26T12:11:38.261Z,48.75
2023-02-26T12:12:38.244Z,47.70
2023-02-26T12:13:38.240Z,48.11
2023-02-26T12:14:38.217Z,47.47
2023-02-26T12:15:38.250Z,48.17
2023-02-26T12:16:38.241Z,47.53
2023-02-26T12:17:38.208Z,46.83
2023-02-26T12:18:38.193Z,46.86
2023-02-26T12:19:38.177Z,45.87
2023-02-26T12:20:38.168Z,45.79
2023-02-26T12:21:38.166Z,47.56
2023-02-26T12:22:38.128Z,47.69
2023-02-26T12:23:38.110Z,47.73
2023-02-26T12:24:38.118Z,48.76
2023-02-26T12:25:38.113Z,47.85
2023-02-26T12:26:38.081Z,48.47
2023-02-26T12:27:38.095Z,49.53
2023-02-26T12:28:38.060Z,50.33
2023-02-26T12:29:38.055Z,49.11
2023-02-26T12:30:38.120Z,49.63
2023-02-26T12:31:38.141Z,49.51
2023-02-26T12:32:38.146Z,49.30
2023-02-26T12:33:38.014Z,49.51
2023-02-26T12:34:38.002Z,50.20
2023-02-26T12:35:37.987Z,48.74
2023-02-26T12:36:48.499Z,48.24
2023-02-26T12:37:38.990Z,49.07
2023-02-26T12:38:37.990Z,48.88
2023-02-26T12:39:37.941Z,48.68
2023-02-26T12:40:37.940Z,48.80
2023-02-26T12:41:37.932Z,48.31
2023-02-26T12:42:37.952Z,48.80
2023-02-26T12:43:37.896Z,49.32
2023-02-26T12:44:37.901Z,49.51
2023-02-26T12:45:37.891Z,49.58
2023-02-26T12:46:37.916Z,50.36
2023-02-26T12:47:37.861Z,49.13
2023-02-26T12:48:37.876Z,50.01
2023-02-26T12:49:37.843Z,47.92
2023-02-26T12:50:37.820Z,46.48
2023-02-26T12:51:37.817Z,46.67
2023-02-26T12:52:37.833Z,46.06
2023-02-26T12:53:37.784Z,44.92
2023-02-26T12:54:37.799Z,45.54
2023-02-26T12:55:37.763Z,45.72
2023-02-26T12:56:37.770Z,45.52
2023-02-26T12:57:37.758Z,45.21
2023-02-26T12:58:37.765Z,46.24
2023-02-26T12:59:37.735Z,46.14
2023-02-26T13:00:37.784Z,46.11
2023-02-26T13:01:37.693Z,45.60
2023-02-26T13:02:37.700Z,45.27
2023-02-26T13:03:37.729Z,45.58
2023-02-26T13:04:37.687Z,44.84
2023-02-26T13:05:37.648Z,43.91
2023-02-26T13:06:37.642Z,44.02
2023-02-26T13:07:37.627Z,43.63
2023-02-26T13:08:37.660Z,44.35